Terminal Aerodrome Forecast
Issued by NWS Cleveland, OH

Home | Current Version | Previous Version | Graphics & Text | Print | Product List | Glossary Off
Versions: 1 2 3 4 5 6 7 8 9 10 11 12 13 14 15 16 17 18 19 20 21 22 23 24 25 26 27 28 29 30 31 32 33 34 35

000
FTUS41 KCLE 270500
TAFCLE
TAF
KCLE 270540Z 2706/2812 22005KT P6SM SCT250
     FM271000 34005KT 5SM BR SCT008
     FM271200 35005KT 5SM BR BKN008
     FM271400 36006KT P6SM BKN015
     FM271600 35010KT P6SM FEW025
     FM280000 02005KT P6SM SCT250=

USA.gov is the U.S. government's official web portal to all federal, state and local government web resources and services.